createdAt,value
2023-09-29T00:02:15.039Z,15.00
2023-09-29T00:07:17.482Z,14.96
2023-09-29T00:12:20.209Z,14.92
2023-09-29T00:17:22.126Z,14.88
2023-09-29T00:22:24.085Z,14.84
2023-09-29T00:27:26.164Z,14.81
2023-09-29T00:32:28.125Z,14.77
2023-09-29T00:37:30.520Z,14.75
2023-09-29T00:42:33.204Z,14.72
2023-09-29T00:47:37.525Z,14.68
2023-09-29T00:52:41.886Z,14.63
2023-09-29T00:57:49.275Z,14.58
2023-09-29T01:02:51.545Z,14.52
2023-09-29T01:07:53.833Z,14.48
2023-09-29T01:12:55.785Z,14.43
2023-09-29T01:17:57.851Z,14.40
2023-09-29T01:23:02.396Z,14.37
2023-09-29T01:28:06.656Z,14.34
2023-09-29T01:33:09.615Z,14.32
2023-09-29T01:38:11.548Z,14.31
2023-09-29T01:43:13.403Z,14.34
2023-09-29T01:48:15.393Z,14.34
2023-09-29T01:53:18.049Z,14.33
2023-09-29T01:58:21.456Z,14.30
2023-09-29T02:03:23.718Z,14.27
2023-09-29T02:08:27.038Z,14.21
2023-09-29T02:13:28.949Z,14.17
2023-09-29T02:18:31.102Z,14.15
2023-09-29T02:23:34.971Z,14.14
2023-09-29T02:28:37.534Z,14.16
2023-09-29T02:33:41.975Z,14.17
2023-09-29T02:38:43.901Z,14.16
2023-09-29T02:43:45.813Z,14.15
2023-09-29T02:48:48.273Z,14.12
2023-09-29T02:53:51.606Z,14.08
2023-09-29T02:58:56.003Z,14.04
2023-09-29T03:04:00.239Z,14.00
2023-09-29T03:09:03.021Z,13.92
2023-09-29T03:14:05.627Z,13.86
2023-09-29T03:19:09.610Z,13.80
2023-09-29T03:24:11.546Z,13.74
2023-09-29T03:29:13.455Z,13.70
2023-09-29T03:34:15.754Z,13.66
2023-09-29T03:39:19.669Z,13.63
2023-09-29T03:44:22.575Z,13.60
2023-09-29T03:49:24.677Z,13.57
2023-09-29T03:54:27.038Z,13.54
2023-09-29T03:59:29.036Z,13.53
2023-09-29T04:04:32.172Z,13.51
2023-09-29T04:09:34.439Z,13.48
2023-09-29T04:14:36.409Z,13.46
2023-09-29T04:19:39.664Z,13.44
2023-09-29T04:24:41.571Z,13.41
2023-09-29T04:29:43.505Z,13.38
2023-09-29T04:34:46.447Z,13.36
2023-09-29T04:39:48.428Z,13.33
2023-09-29T04:44:50.323Z,13.30
2023-09-29T04:49:52.250Z,13.28
2023-09-29T04:54:54.592Z,13.27
2023-09-29T04:59:56.616Z,13.28
2023-09-29T05:04:58.501Z,13.31
2023-09-29T05:10:00.639Z,13.35
2023-09-29T05:15:03.282Z,13.40
2023-09-29T05:20:06.626Z,13.48
2023-09-29T05:25:09.745Z,13.57
2023-09-29T05:30:13.607Z,13.67
2023-09-29T05:35:15.560Z,13.80
2023-09-29T05:40:17.690Z,13.93
2023-09-29T05:45:21.242Z,14.06
2023-09-29T05:50:23.150Z,14.20
2023-09-29T05:55:25.320Z,14.36
2023-09-29T06:00:27.731Z,14.54
2023-09-29T06:05:31.037Z,14.73
2023-09-29T06:10:33.176Z,14.94
2023-09-29T06:15:35.040Z,15.15
2023-09-29T06:20:36.927Z,15.36
2023-09-29T06:25:38.901Z,15.57
2023-09-29T06:30:40.907Z,15.80
2023-09-29T06:35:43.339Z,16.05
2023-09-29T06:40:45.395Z,16.30
2023-09-29T06:50:52.455Z,16.80
2023-09-29T06:55:55.495Z,17.06
2023-09-29T07:01:02.074Z,17.29
2023-09-29T07:06:04.674Z,17.57
2023-09-29T07:11:06.736Z,17.81
2023-09-29T07:16:09.110Z,18.03
2023-09-29T07:21:11.009Z,18.24
2023-09-29T07:26:13.373Z,18.42
2023-09-29T07:31:15.330Z,18.65
2023-09-29T07:36:17.523Z,18.84
2023-09-29T07:41:19.512Z,19.06
2023-09-29T07:46:21.587Z,19.37
2023-09-29T07:51:26.198Z,19.60
2023-09-29T07:56:28.221Z,19.79
2023-09-29T08:01:30.490Z,19.98
2023-09-29T08:06:32.306Z,20.23
2023-09-29T08:11:34.668Z,20.49
2023-09-29T08:16:37.489Z,20.73
2023-09-29T08:21:40.384Z,20.97
2023-09-29T08:26:42.879Z,21.22
2023-09-29T08:31:45.150Z,21.47
2023-09-29T08:36:47.255Z,21.68
2023-09-29T08:41:57.405Z,21.91
2023-09-29T08:47:02.499Z,22.15
2023-09-29T08:52:05.685Z,22.39
2023-09-29T08:57:08.976Z,22.64
2023-09-29T09:02:11.257Z,22.84
2023-09-29T09:07:14.247Z,22.76
2023-09-29T09:12:18.409Z,22.63
2023-09-29T09:17:20.574Z,22.61
2023-09-29T09:22:38.708Z,22.67
2023-09-29T09:27:42.729Z,22.74
2023-09-29T09:32:44.949Z,22.87
2023-09-29T09:37:52.578Z,23.00
2023-09-29T09:42:55.320Z,23.15
2023-09-29T09:48:01.036Z,23.32
2023-09-29T09:53:09.213Z,23.47
2023-09-29T09:58:14.644Z,23.61
2023-09-29T10:03:18.242Z,23.77
2023-09-29T10:08:32.439Z,23.91
2023-09-29T10:13:39.371Z,24.05
2023-09-29T10:18:42.039Z,24.18
2023-09-29T10:23:51.867Z,24.27
2023-09-29T10:29:02.299Z,24.39
2023-09-29T10:34:04.470Z,24.51
2023-09-29T10:39:06.491Z,24.63
2023-09-29T10:44:08.652Z,24.75
2023-09-29T10:49:11.323Z,24.82
2023-09-29T10:54:13.582Z,24.90
2023-09-29T10:59:15.444Z,25.01
2023-09-29T11:04:17.589Z,25.11
2023-09-29T11:09:29.829Z,25.15
2023-09-29T11:14:39.830Z,25.14
2023-09-29T11:19:55.781Z,25.15
2023-09-29T11:24:58.326Z,25.14
2023-09-29T11:30:02.332Z,25.23
2023-09-29T11:35:04.410Z,25.23
2023-09-29T11:40:12.803Z,25.21
2023-09-29T11:45:14.945Z,25.28
2023-09-29T11:50:16.926Z,25.33
2023-09-29T11:55:18.890Z,25.39
2023-09-29T12:00:20.752Z,25.45
2023-09-29T12:05:22.805Z,25.50
2023-09-29T12:10:24.721Z,25.56
2023-09-29T12:15:27.188Z,25.60
2023-09-29T12:20:29.821Z,25.67
2023-09-29T12:25:32.510Z,25.81
2023-09-29T12:30:34.737Z,25.88
2023-09-29T12:35:36.629Z,25.88
2023-09-29T12:40:38.572Z,25.91
2023-09-29T12:45:40.391Z,25.99
2023-09-29T12:50:42.636Z,26.08
2023-09-29T12:55:44.677Z,26.09
2023-09-29T13:00:46.740Z,26.09
2023-09-29T13:05:49.162Z,26.09
2023-09-29T13:10:51.382Z,26.10
2023-09-29T13:15:53.846Z,26.10
2023-09-29T13:20:56.479Z,26.10
2023-09-29T13:25:58.565Z,26.01
2023-09-29T13:31:02.786Z,25.97
2023-09-29T13:36:05.172Z,25.93
2023-09-29T13:41:07.337Z,25.92
2023-09-29T13:46:09.689Z,25.95
2023-09-29T13:51:12.036Z,25.91
2023-09-29T13:56:14.793Z,25.88
2023-09-29T14:01:22.915Z,25.83
2023-09-29T14:06:25.136Z,25.85
2023-09-29T14:11:27.451Z,25.85
2023-09-29T14:16:30.124Z,25.82
2023-09-29T14:21:32.119Z,25.74
2023-09-29T14:26:34.659Z,25.68
2023-09-29T14:31:36.656Z,25.59
2023-09-29T14:36:38.498Z,25.47
2023-09-29T14:41:40.391Z,25.39
2023-09-29T14:46:42.821Z,25.25
2023-09-29T14:51:44.639Z,25.10
2023-09-29T14:56:46.469Z,24.95
2023-09-29T15:01:48.936Z,24.79
2023-09-29T15:06:50.878Z,24.65
2023-09-29T15:11:52.869Z,24.51
2023-09-29T15:16:54.838Z,24.36
2023-09-29T15:21:57.448Z,24.19
2023-09-29T15:27:05.133Z,24.02
2023-09-29T15:32:20.707Z,23.85
2023-09-29T15:37:22.650Z,23.67
2023-09-29T15:42:25.351Z,23.50
2023-09-29T15:47:27.405Z,23.32
2023-09-29T15:52:29.378Z,23.10
2023-09-29T15:57:31.542Z,22.87
2023-09-29T16:02:33.400Z,22.63
2023-09-29T16:07:35.895Z,22.39
2023-09-29T16:12:37.747Z,22.17
2023-09-29T16:17:40.114Z,21.97
2023-09-29T16:22:41.969Z,21.75
2023-09-29T16:27:43.890Z,21.55
2023-09-29T16:32:45.855Z,21.33
2023-09-29T16:37:47.756Z,21.08
2023-09-29T16:42:49.551Z,20.83
2023-09-29T16:47:52.019Z,20.57
2023-09-29T16:52:53.896Z,20.31
2023-09-29T16:57:56.047Z,20.07
2023-09-29T17:02:58.087Z,19.86
2023-09-29T17:08:01.733Z,19.68
2023-09-29T17:13:04.784Z,19.50
2023-09-29T17:18:07.028Z,19.34
2023-09-29T17:23:10.028Z,19.14
2023-09-29T17:28:14.570Z,18.96
2023-09-29T17:33:17.711Z,18.81
2023-09-29T17:38:19.765Z,18.68
2023-09-29T17:43:21.691Z,18.61
2023-09-29T17:48:40.884Z,18.59
2023-09-29T17:53:46.370Z,18.53
2023-09-29T17:58:48.764Z,18.42
2023-09-29T18:03:50.724Z,18.28
2023-09-29T18:08:53.043Z,18.24
2023-09-29T18:13:58.116Z,18.51
2023-09-29T18:19:01.804Z,18.69
2023-09-29T18:24:06.817Z,18.80
2023-09-29T18:29:10.292Z,18.88
2023-09-29T18:34:12.992Z,18.92
2023-09-29T18:39:15.839Z,18.94
2023-09-29T18:44:18.083Z,18.92
2023-09-29T18:49:20.099Z,18.90
2023-09-29T18:54:24.668Z,18.87
2023-09-29T18:59:30.352Z,18.84
2023-09-29T19:04:35.595Z,18.80
2023-09-29T19:09:39.316Z,18.74
2023-09-29T19:14:41.409Z,18.69
2023-09-29T19:19:43.426Z,18.63
2023-09-29T19:24:46.503Z,18.58
2023-09-29T19:29:50.635Z,18.53
2023-09-29T19:34:53.016Z,18.47
2023-09-29T19:39:54.879Z,18.42
2023-09-29T19:44:57.419Z,18.35
2023-09-29T19:50:01.205Z,18.28
2023-09-29T19:55:04.559Z,18.22
2023-09-29T20:00:07.116Z,18.17
2023-09-29T20:05:17.850Z,18.11
2023-09-29T20:10:20.154Z,18.06
2023-09-29T20:15:22.002Z,18.01
2023-09-29T20:20:23.949Z,17.97
2023-09-29T20:25:26.247Z,17.93
2023-09-29T20:30:28.507Z,17.88
2023-09-29T20:35:31.562Z,17.81
2023-09-29T20:40:33.450Z,17.75
2023-09-29T20:45:35.942Z,17.69
2023-09-29T20:50:39.112Z,17.65
2023-09-29T20:55:41.048Z,17.60
2023-09-29T21:00:43.100Z,17.53
2023-09-29T21:05:45.098Z,17.47
2023-09-29T21:11:01.631Z,17.40
2023-09-29T21:16:07.586Z,17.33
2023-09-29T21:21:09.567Z,17.24
2023-09-29T21:26:15.874Z,17.14
2023-09-29T21:31:22.663Z,17.07
2023-09-29T21:36:24.780Z,16.98
2023-09-29T21:41:26.602Z,16.91
2023-09-29T21:46:34.447Z,16.82
2023-09-29T21:51:40.391Z,16.74
2023-09-29T21:56:42.620Z,16.70
2023-09-29T22:01:44.672Z,16.68
2023-09-29T22:06:46.544Z,16.61
2023-09-29T22:11:48.607Z,16.53
2023-09-29T22:16:50.527Z,16.46
2023-09-29T22:21:56.132Z,16.42
2023-09-29T22:26:58.070Z,16.40
2023-09-29T22:32:00.702Z,16.40
2023-09-29T22:37:02.617Z,16.41
2023-09-29T22:42:04.508Z,16.42
2023-09-29T22:47:06.756Z,16.35
2023-09-29T22:52:08.642Z,16.38
2023-09-29T22:57:10.550Z,16.39
2023-09-29T23:02:12.749Z,16.41
2023-09-29T23:07:14.712Z,16.40
2023-09-29T23:12:19.647Z,16.41
2023-09-29T23:17:21.724Z,16.48
2023-09-29T23:22:23.725Z,16.49
2023-09-29T23:27:25.683Z,16.53
2023-09-29T23:32:29.098Z,16.59
2023-09-29T23:37:31.411Z,16.61
2023-09-29T23:42:33.773Z,16.63
2023-09-29T23:47:36.347Z,16.65
2023-09-29T23:52:38.907Z,16.70
2023-09-29T23:57:41.160Z,16.73
